createdAt,value
2022-09-01T00:00:02.016Z,94551.28
2022-09-01T00:02:32.183Z,94544.56
2022-09-01T00:04:59.546Z,94550.06
2022-09-01T00:07:32.687Z,94546.84
2022-09-01T00:10:00.310Z,94545.16
2022-09-01T00:12:28.098Z,94548.41
2022-09-01T00:14:54.955Z,94547.06
2022-09-01T00:17:21.981Z,94545.75
2022-09-01T00:19:48.948Z,94538.72
2022-09-01T00:22:15.802Z,94535.94
2022-09-01T00:24:42.460Z,94535.94
2022-09-01T00:27:09.129Z,94544.03
2022-09-01T00:29:36.148Z,94537.84
2022-09-01T00:32:03.153Z,94540.88
2022-09-01T00:34:29.871Z,94528.69
2022-09-01T00:36:56.534Z,94522.97
2022-09-01T00:39:23.189Z,94518.94
2022-09-01T00:41:50.833Z,94512.31
2022-09-01T00:44:23.356Z,94509.19
2022-09-01T00:46:55.276Z,94515.63
2022-09-01T00:49:37.092Z,94502.47
2022-09-01T00:52:27.804Z,94506.94
2022-09-01T00:54:58.681Z,94500.84
2022-09-01T00:57:26.435Z,94497.16
2022-09-01T00:59:59.272Z,94498.81
2022-09-01T01:02:26.552Z,94501.94
2022-09-01T01:04:56.119Z,94494.81
2022-09-01T01:07:23.326Z,94496.81
2022-09-01T01:09:51.406Z,94490.72
2022-09-01T01:12:18.902Z,94496.53
2022-09-01T01:14:50.587Z,94495.06
2022-09-01T01:17:19.918Z,94490.47
2022-09-01T01:20:08.750Z,94488.34
2022-09-01T01:23:03.992Z,94498.03
2022-09-01T01:25:44.305Z,94493.25
2022-09-01T01:28:31.910Z,94492.47
2022-09-01T01:31:13.013Z,94499.84
2022-09-01T01:33:50.124Z,94498.72
2022-09-01T01:36:24.882Z,94492.19
2022-09-01T01:38:53.210Z,94495.75
2022-09-01T01:41:20.094Z,94491.50
2022-09-01T01:43:48.400Z,94496.53
2022-09-01T01:46:18.275Z,94499.38
2022-09-01T01:48:47.145Z,94497.97
2022-09-01T01:51:18.869Z,94499.53
2022-09-01T01:53:47.316Z,94502.25
2022-09-01T01:56:14.476Z,94506.50
2022-09-01T01:58:41.130Z,94505.28
2022-09-01T02:01:12.762Z,94504.06
2022-09-01T02:03:40.771Z,94504.06
2022-09-01T02:06:10.090Z,94516.94
2022-09-01T02:08:38.452Z,94516.59
2022-09-01T02:11:06.941Z,94515.72
2022-09-01T02:13:34.143Z,94509.47
2022-09-01T02:16:04.804Z,94508.25
2022-09-01T02:18:37.841Z,94506.22
2022-09-01T02:21:15.140Z,94504.66
2022-09-01T02:23:43.275Z,94501.19
2022-09-01T02:26:16.677Z,94497.94
2022-09-01T02:28:54.281Z,94501.09
2022-09-01T02:31:28.155Z,94489.59
2022-09-01T02:33:56.162Z,94483.16
2022-09-01T02:36:25.534Z,94481.50
2022-09-01T02:38:55.239Z,94493.00
2022-09-01T02:41:25.228Z,94480.00
2022-09-01T02:43:52.307Z,94481.16
2022-09-01T02:46:24.497Z,94487.69
2022-09-01T02:48:53.217Z,94485.69
2022-09-01T02:51:25.381Z,94493.84
2022-09-01T02:53:52.933Z,94489.13
2022-09-01T02:56:25.755Z,94492.09
2022-09-01T02:58:55.060Z,94489.41
2022-09-01T03:01:29.315Z,94479.66
2022-09-01T03:04:01.024Z,94486.78
2022-09-01T03:06:29.164Z,94482.34
2022-09-01T03:09:00.357Z,94483.34
2022-09-01T03:11:31.921Z,94488.28
2022-09-01T03:13:59.498Z,94479.56
2022-09-01T03:16:30.547Z,94478.78
2022-09-01T03:18:58.096Z,94482.34
2022-09-01T03:21:25.164Z,94476.19
2022-09-01T03:23:53.042Z,94481.41
2022-09-01T03:26:22.577Z,94489.41
2022-09-01T03:28:51.284Z,94485.34
2022-09-01T03:31:19.613Z,94488.03
2022-09-01T03:33:48.369Z,94477.66
2022-09-01T03:36:21.996Z,94479.50
2022-09-01T03:38:50.114Z,94482.88
2022-09-01T03:41:21.641Z,94474.78
2022-09-01T03:43:49.416Z,94479.06
2022-09-01T03:46:22.974Z,94475.13
2022-09-01T03:48:55.783Z,94478.19
2022-09-01T03:51:23.672Z,94472.53
2022-09-01T03:53:55.248Z,94485.34
2022-09-01T03:56:25.625Z,94472.97
2022-09-01T03:58:52.741Z,94475.06
2022-09-01T04:01:20.229Z,94468.59
2022-09-01T04:03:49.109Z,94467.41
2022-09-01T04:06:21.338Z,94465.03
2022-09-01T04:08:48.059Z,94470.25
2022-09-01T04:11:18.818Z,94470.16
2022-09-01T04:13:47.661Z,94467.09
2022-09-01T04:16:39.865Z,94471.91
2022-09-01T04:19:16.000Z,94467.41
2022-09-01T04:21:44.887Z,94468.53
2022-09-01T04:24:14.923Z,94468.06
2022-09-01T04:26:43.234Z,94464.34
2022-09-01T04:29:12.787Z,94467.13
2022-09-01T04:31:40.864Z,94473.66
2022-09-01T04:34:14.022Z,94467.41
2022-09-01T04:36:44.885Z,94464.00
2022-09-01T04:39:13.377Z,94469.97
2022-09-01T04:41:46.051Z,94465.88
2022-09-01T04:44:16.835Z,94477.13
2022-09-01T04:46:46.481Z,94473.28
2022-09-01T04:49:19.517Z,94476.78
2022-09-01T04:51:53.290Z,94471.97
2022-09-01T04:54:22.690Z,94474.69
2022-09-01T04:56:51.459Z,94470.75
2022-09-01T04:59:21.565Z,94477.81
2022-09-01T05:01:55.674Z,94470.16
2022-09-01T05:04:28.625Z,94471.38
2022-09-01T05:07:01.284Z,94481.66
2022-09-01T05:09:38.052Z,94474.69
2022-09-01T05:12:23.024Z,94468.22
2022-09-01T05:14:49.915Z,94474.41
2022-09-01T05:17:18.773Z,94471.03
2022-09-01T05:19:50.635Z,94467.63
2022-09-01T05:22:23.190Z,94481.13
2022-09-01T05:25:03.766Z,94482.44
2022-09-01T05:27:31.608Z,94480.09
2022-09-01T05:30:00.260Z,94479.91
2022-09-01T05:32:27.569Z,94476.50
2022-09-01T05:34:54.557Z,94477.38
2022-09-01T05:37:21.695Z,94482.69
2022-09-01T05:39:48.978Z,94485.81
2022-09-01T05:42:16.030Z,94477.44
2022-09-01T05:44:44.278Z,94480.81
2022-09-01T05:47:20.305Z,94485.03
2022-09-01T05:49:50.297Z,94486.22
2022-09-01T05:52:17.270Z,94487.00
2022-09-01T05:54:48.066Z,94481.34
2022-09-01T05:57:33.906Z,94491.75
2022-09-01T06:00:02.873Z,94478.47
2022-09-01T06:02:41.229Z,94482.81
2022-09-01T06:05:11.005Z,94485.97
2022-09-01T06:07:41.026Z,94486.88
2022-09-01T06:10:08.687Z,94490.50
2022-09-01T06:12:35.741Z,94484.81
2022-09-01T06:15:02.806Z,94482.03
2022-09-01T06:17:35.253Z,94482.91
2022-09-01T06:20:10.786Z,94478.19
2022-09-01T06:22:41.098Z,94479.34
2022-09-01T06:25:09.580Z,94489.38
2022-09-01T06:27:41.317Z,94486.94
2022-09-01T06:30:20.168Z,94488.31
2022-09-01T06:32:54.617Z,94479.25
2022-09-01T06:35:22.343Z,94485.09
2022-09-01T06:37:49.362Z,94484.59
2022-09-01T06:40:35.487Z,94486.38
2022-09-01T06:43:08.038Z,94487.53
2022-09-01T06:45:44.316Z,94491.41
2022-09-01T06:48:16.677Z,94487.16
2022-09-01T06:53:45.548Z,94489.22
2022-09-01T06:56:16.775Z,94489.44
2022-09-01T06:58:48.214Z,94495.56
2022-09-01T07:01:17.914Z,94500.38
2022-09-01T07:03:47.747Z,94509.91
2022-09-01T07:12:28.375Z,94507.25
2022-09-01T07:17:55.612Z,94515.72
2022-09-01T07:20:27.734Z,94510.91
2022-09-01T07:23:05.662Z,94515.03
2022-09-01T07:28:37.197Z,94510.91
2022-09-01T07:39:51.244Z,94521.03
2022-09-01T07:42:59.128Z,94509.91
2022-09-01T07:45:58.275Z,94532.50
2022-09-01T07:48:36.701Z,94530.81
2022-09-01T07:51:36.051Z,94539.19
2022-09-01T07:54:04.863Z,94535.16
2022-09-01T07:56:34.186Z,94539.81
2022-09-01T07:59:03.387Z,94533.38
2022-09-01T08:01:32.220Z,94538.00
2022-09-01T08:04:00.529Z,94538.09
2022-09-01T08:06:37.883Z,94541.00
2022-09-01T08:09:07.431Z,94550.03
2022-09-01T08:12:01.253Z,94547.94
2022-09-01T08:14:26.209Z,94546.06
2022-09-01T08:16:53.407Z,94548.84
2022-09-01T08:19:20.886Z,94547.94
2022-09-01T08:22:06.475Z,94560.59
2022-09-01T08:24:46.668Z,94554.19
2022-09-01T08:27:13.763Z,94565.50
2022-09-01T08:29:41.021Z,94564.88
2022-09-01T08:32:07.885Z,94560.22
2022-09-01T08:34:35.168Z,94566.91
2022-09-01T08:37:02.076Z,94562.19
2022-09-01T08:39:29.067Z,94566.09
2022-09-01T08:42:14.538Z,94561.63
2022-09-01T08:45:09.479Z,94559.06
2022-09-01T08:47:55.877Z,94566.84
2022-09-01T08:50:24.357Z,94563.97
2022-09-01T08:53:26.628Z,94571.09
2022-09-01T08:55:58.532Z,94575.72
2022-09-01T08:58:27.746Z,94575.50
2022-09-01T09:01:27.591Z,94579.63
2022-09-01T09:04:12.679Z,94582.34
2022-09-01T09:06:51.457Z,94580.16
2022-09-01T09:09:18.394Z,94581.78
2022-09-01T09:11:59.023Z,94585.97
2022-09-01T09:14:47.405Z,94580.16
2022-09-01T09:17:18.835Z,94584.41
2022-09-01T09:19:46.701Z,94581.38
2022-09-01T09:22:17.193Z,94581.50
2022-09-01T09:25:03.238Z,94577.59
2022-09-01T09:27:42.645Z,94583.59
2022-09-01T09:30:26.544Z,94582.22
2022-09-01T09:33:30.989Z,94589.91
2022-09-01T09:35:47.649Z,94586.25
2022-09-01T09:38:22.684Z,94594.41
2022-09-01T09:41:18.745Z,94590.91
2022-09-01T09:43:49.800Z,94584.13
2022-09-01T09:46:36.750Z,94583.47
2022-09-01T09:49:21.677Z,94581.44
2022-09-01T09:52:03.354Z,94578.63
2022-09-01T09:54:33.165Z,94583.56
2022-09-01T09:57:08.754Z,94584.56
2022-09-01T10:00:03.553Z,94582.50
2022-09-01T10:02:44.158Z,94576.50
2022-09-01T10:05:35.605Z,94582.75
2022-09-01T10:08:03.333Z,94578.69
2022-09-01T10:10:49.110Z,94588.66
2022-09-01T10:13:26.931Z,94588.66
2022-09-01T10:15:57.211Z,94578.53
2022-09-01T10:18:29.756Z,94573.81
2022-09-01T10:21:11.136Z,94586.72
2022-09-01T10:23:41.267Z,94586.84
2022-09-01T10:26:15.483Z,94585.91
2022-09-01T10:29:06.264Z,94583.28
2022-09-01T10:31:35.070Z,94578.56
2022-09-01T10:34:05.609Z,94575.53
2022-09-01T10:36:34.958Z,94575.91
2022-09-01T10:39:06.172Z,94572.06
2022-09-01T10:42:00.176Z,94583.38
2022-09-01T10:44:35.805Z,94570.91
2022-09-01T10:47:25.550Z,94570.25
2022-09-01T10:49:52.293Z,94566.41
2022-09-01T10:52:40.778Z,94566.84
2022-09-01T10:55:24.467Z,94567.19
2022-09-01T11:01:41.055Z,94568.84
2022-09-01T11:04:03.339Z,94570.78
2022-09-01T11:07:13.361Z,94567.84
2022-09-01T11:10:30.781Z,94571.22
2022-09-01T11:13:15.741Z,94564.03
2022-09-01T11:15:45.030Z,94565.66
2022-09-01T11:18:19.364Z,94568.56
2022-09-01T11:20:47.017Z,94576.31
2022-09-01T11:23:30.591Z,94572.69
2022-09-01T11:26:19.363Z,94574.97
2022-09-01T11:28:46.688Z,94568.41
2022-09-01T11:31:23.201Z,94566.09
2022-09-01T11:33:59.083Z,94563.28
2022-09-01T11:36:35.360Z,94564.66
2022-09-01T11:39:17.876Z,94563.75
2022-09-01T11:41:57.475Z,94555.66
2022-09-01T11:44:32.564Z,94564.41
2022-09-01T11:47:09.649Z,94552.72
2022-09-01T11:49:48.862Z,94550.69
2022-09-01T11:52:18.467Z,94551.06
2022-09-01T11:54:46.883Z,94552.09
2022-09-01T11:57:35.453Z,94556.66
2022-09-01T12:00:09.752Z,94550.84
2022-09-01T12:02:47.171Z,94550.34
2022-09-01T12:05:36.089Z,94550.81
2022-09-01T12:08:12.073Z,94543.69
2022-09-01T12:10:40.268Z,94540.81
2022-09-01T12:13:20.600Z,94538.00
2022-09-01T12:16:19.030Z,94535.91
2022-09-01T12:18:48.706Z,94534.97
2022-09-01T12:21:42.789Z,94533.44
2022-09-01T12:24:24.619Z,94531.78
2022-09-01T12:27:01.162Z,94541.16
2022-09-01T12:29:32.144Z,94542.34
2022-09-01T12:32:00.303Z,94535.38
2022-09-01T12:34:35.821Z,94526.41
2022-09-01T12:37:14.860Z,94531.44
2022-09-01T12:39:50.283Z,94528.75
2022-09-01T12:42:20.071Z,94531.88
2022-09-01T12:44:57.506Z,94546.28
2022-09-01T12:47:36.677Z,94536.47
2022-09-01T12:50:29.654Z,94538.41
2022-09-01T12:53:02.487Z,94538.00
2022-09-01T12:55:50.520Z,94531.00
2022-09-01T12:58:25.713Z,94536.06
2022-09-01T13:01:01.548Z,94538.31
2022-09-01T13:03:29.697Z,94536.59
2022-09-01T13:05:59.376Z,94530.13
2022-09-01T13:08:34.742Z,94536.41
2022-09-01T13:11:11.342Z,94530.59
2022-09-01T13:13:38.968Z,94531.31
2022-09-01T13:16:13.079Z,94527.09
2022-09-01T13:21:30.413Z,94529.44
2022-09-01T13:23:57.265Z,94524.75
2022-09-01T13:26:24.170Z,94524.72
2022-09-01T13:28:51.723Z,94534.75
2022-09-01T13:31:34.437Z,94525.03
2022-09-01T13:34:10.647Z,94524.25
2022-09-01T13:36:47.094Z,94517.66
2022-09-01T13:39:15.806Z,94515.03
2022-09-01T13:41:43.140Z,94509.22
2022-09-01T13:44:11.646Z,94508.09
2022-09-01T13:46:59.102Z,94513.94
2022-09-01T13:52:13.241Z,94510.44
2022-09-01T13:54:40.212Z,94505.00
2022-09-01T13:57:06.894Z,94502.66
2022-09-01T13:59:33.613Z,94508.78
2022-09-01T14:02:01.657Z,94513.00
2022-09-01T14:04:29.043Z,94506.34
2022-09-01T14:06:56.205Z,94505.97
2022-09-01T14:09:22.945Z,94503.66
2022-09-01T14:11:53.506Z,94500.22
2022-09-01T14:14:20.168Z,94502.97
2022-09-01T14:16:46.925Z,94497.56
2022-09-01T14:19:13.672Z,94490.97
2022-09-01T14:21:40.394Z,94495.63
2022-09-01T14:24:08.361Z,94499.13
2022-09-01T14:26:35.352Z,94487.81
2022-09-01T14:29:02.619Z,94496.03
2022-09-01T14:31:29.807Z,94491.28
2022-09-01T14:33:56.461Z,94490.84
2022-09-01T14:36:26.301Z,94490.84
2022-09-01T14:38:53.857Z,94479.56
2022-09-01T14:41:26.471Z,94487.75
2022-09-01T14:43:57.623Z,94484.63
2022-09-01T14:46:26.858Z,94485.44
2022-09-01T14:48:53.660Z,94480.75
2022-09-01T14:51:25.561Z,94476.03
2022-09-01T14:53:54.342Z,94475.59
2022-09-01T14:56:22.629Z,94468.19
2022-09-01T14:58:50.492Z,94479.50
2022-09-01T15:01:33.710Z,94474.91
2022-09-01T15:04:01.305Z,94477.28
2022-09-01T15:06:28.049Z,94472.22
2022-09-01T15:08:55.237Z,94468.34
2022-09-01T15:11:22.053Z,94465.22
2022-09-01T15:13:52.219Z,94469.13
2022-09-01T15:16:22.531Z,94466.38
2022-09-01T15:18:49.467Z,94466.38
2022-09-01T15:21:28.526Z,94466.75
2022-09-01T15:23:55.306Z,94471.38
2022-09-01T15:26:22.043Z,94474.50
2022-09-01T15:28:49.669Z,94464.38
2022-09-01T15:31:18.625Z,94466.34
2022-09-01T15:33:57.115Z,94467.16
2022-09-01T15:36:25.885Z,94464.44
2022-09-01T15:38:53.005Z,94471.84
2022-09-01T15:41:25.594Z,94469.44
2022-09-01T15:43:52.295Z,94460.84
2022-09-01T15:46:20.147Z,94471.38
2022-09-01T15:48:47.625Z,94468.97
2022-09-01T15:51:23.290Z,94461.94
2022-09-01T15:53:57.183Z,94465.44
2022-09-01T15:56:24.035Z,94457.63
2022-09-01T15:59:00.918Z,94452.16
2022-09-01T16:01:30.967Z,94453.34
2022-09-01T16:03:58.305Z,94457.28
2022-09-01T16:06:26.425Z,94460.41
2022-09-01T16:08:54.572Z,94449.53
2022-09-01T16:11:23.569Z,94451.50
2022-09-01T16:13:53.919Z,94458.91
2022-09-01T16:16:41.389Z,94461.59
2022-09-01T16:19:30.014Z,94457.69
2022-09-01T16:21:56.615Z,94455.28
2022-09-01T16:24:23.553Z,94455.59
2022-09-01T16:26:50.396Z,94453.22
2022-09-01T16:29:43.281Z,94455.50
2022-09-01T16:32:12.445Z,94453.16
2022-09-01T16:34:46.800Z,94449.63
2022-09-01T16:37:25.746Z,94448.78
2022-09-01T16:40:30.679Z,94446.06
2022-09-01T16:43:23.995Z,94451.88
2022-09-01T16:46:12.150Z,94450.28
2022-09-01T16:48:57.687Z,94439.38
2022-09-01T16:51:39.197Z,94447.50
2022-09-01T16:54:24.988Z,94447.09
2022-09-01T16:57:37.000Z,94445.13
2022-09-01T17:00:08.722Z,94440.78
2022-09-01T17:02:49.532Z,94440.78
2022-09-01T17:05:33.329Z,94437.63
2022-09-01T17:08:18.553Z,94436.81
2022-09-01T17:10:54.162Z,94434.44
2022-09-01T17:13:51.889Z,94437.81
2022-09-01T17:16:29.709Z,94427.28
2022-09-01T17:19:01.609Z,94432.66
2022-09-01T17:21:32.157Z,94432.19
2022-09-01T17:24:13.156Z,94431.34
2022-09-01T17:26:41.226Z,94441.78
2022-09-01T17:29:23.295Z,94434.31
2022-09-01T17:32:09.805Z,94434.25
2022-09-01T17:34:49.900Z,94431.41
2022-09-01T17:37:53.137Z,94439.50
2022-09-01T17:40:27.864Z,94437.84
2022-09-01T17:43:21.156Z,94442.81
2022-09-01T17:46:04.401Z,94442.72
2022-09-01T17:48:40.606Z,94439.84
2022-09-01T17:51:16.433Z,94440.53
2022-09-01T17:53:58.338Z,94445.09
2022-09-01T17:56:37.291Z,94445.00
2022-09-01T17:59:26.781Z,94438.69
2022-09-01T18:02:24.675Z,94442.53
2022-09-01T18:05:08.674Z,94444.41
2022-09-01T18:08:04.875Z,94450.94
2022-09-01T18:10:39.050Z,94446.91
2022-09-01T18:13:10.744Z,94454.56
2022-09-01T18:15:51.834Z,94450.97
2022-09-01T18:18:40.727Z,94458.59
2022-09-01T18:21:16.653Z,94458.16
2022-09-01T18:23:45.904Z,94460.44
2022-09-01T18:26:23.256Z,94456.13
2022-09-01T18:28:54.449Z,94464.97
2022-09-01T18:31:58.707Z,94468.81
2022-09-01T18:35:04.163Z,94462.63
2022-09-01T18:38:08.486Z,94468.69
2022-09-01T18:40:51.298Z,94462.41
2022-09-01T18:43:29.267Z,94466.84
2022-09-01T18:46:06.430Z,94466.72
2022-09-01T18:48:54.699Z,94470.59
2022-09-01T18:51:49.373Z,94478.22
2022-09-01T18:54:41.919Z,94473.59
2022-09-01T18:57:14.364Z,94480.13
2022-09-01T19:00:00.022Z,94476.66
2022-09-01T19:03:08.415Z,94477.28
2022-09-01T19:05:38.449Z,94476.44
2022-09-01T19:08:44.763Z,94471.00
2022-09-01T19:11:25.143Z,94477.19
2022-09-01T19:14:11.760Z,94468.16
2022-09-01T19:16:57.843Z,94474.63
2022-09-01T19:19:51.266Z,94468.28
2022-09-01T19:22:53.315Z,94475.34
2022-09-01T19:25:37.022Z,94475.84
2022-09-01T19:28:24.585Z,94472.50
2022-09-01T19:31:21.580Z,94472.00
2022-09-01T19:33:56.014Z,94475.06
2022-09-01T19:36:36.803Z,94474.63
2022-09-01T19:39:06.050Z,94474.19
2022-09-01T19:41:43.411Z,94473.34
2022-09-01T19:44:34.047Z,94470.59
2022-09-01T19:47:27.546Z,94468.94
2022-09-01T19:49:54.711Z,94472.78
2022-09-01T19:52:56.037Z,94470.44
2022-09-01T19:55:47.265Z,94466.88
2022-09-01T19:58:24.925Z,94464.78
2022-09-01T20:00:57.613Z,94465.16
2022-09-01T20:03:33.439Z,94469.38
2022-09-01T20:06:06.842Z,94476.28
2022-09-01T20:08:42.115Z,94477.78
2022-09-01T20:11:41.522Z,94470.78
2022-09-01T20:14:22.709Z,94471.84
2022-09-01T20:16:53.324Z,94473.69
2022-09-01T20:19:46.572Z,94464.81
2022-09-01T20:22:31.089Z,94465.13
2022-09-01T20:25:10.406Z,94464.72
2022-09-01T20:28:02.969Z,94458.06
2022-09-01T20:30:41.667Z,94458.78
2022-09-01T20:33:36.787Z,94450.16
2022-09-01T20:36:16.037Z,94449.72
2022-09-01T20:39:19.075Z,94457.03
2022-09-01T20:42:15.452Z,94463.09
2022-09-01T20:44:49.418Z,94459.97
2022-09-01T20:47:17.002Z,94464.16
2022-09-01T20:49:44.813Z,94458.25
2022-09-01T20:52:19.487Z,94454.31
2022-09-01T20:54:55.207Z,94453.81
2022-09-01T20:57:42.114Z,94453.03
2022-09-01T21:00:22.938Z,94456.38
2022-09-01T21:02:55.639Z,94460.56
2022-09-01T21:05:42.351Z,94459.34
2022-09-01T21:08:50.553Z,94453.88
2022-09-01T21:11:32.265Z,94461.09
2022-09-01T21:14:05.089Z,94451.72
2022-09-01T21:16:49.676Z,94455.91
2022-09-01T21:19:26.825Z,94445.03
2022-09-01T21:22:02.437Z,94455.38
2022-09-01T21:24:29.214Z,94445.94
2022-09-01T21:26:57.729Z,94456.66
2022-09-01T21:29:24.794Z,94446.84
2022-09-01T21:31:52.181Z,94441.78
2022-09-01T21:34:18.865Z,94446.84
2022-09-01T21:36:45.544Z,94451.28
2022-09-01T21:39:13.054Z,94445.78
2022-09-01T21:41:40.329Z,94451.97
2022-09-01T21:44:07.367Z,94446.22
2022-09-01T21:46:34.086Z,94449.91
2022-09-01T21:49:00.736Z,94444.78
2022-09-01T21:51:27.490Z,94450.84
2022-09-01T21:53:54.264Z,94453.03
2022-09-01T21:56:25.889Z,94454.16
2022-09-01T21:58:53.034Z,94450.22
2022-09-01T22:01:19.778Z,94441.28
2022-09-01T22:03:46.558Z,94438.59
2022-09-01T22:06:13.363Z,94442.44
2022-09-01T22:08:40.129Z,94440.31
2022-09-01T22:11:10.065Z,94436.41
2022-09-01T22:13:36.844Z,94439.00
2022-09-01T22:16:04.968Z,94438.91
2022-09-01T22:18:32.030Z,94446.56
2022-09-01T22:21:08.213Z,94441.53
2022-09-01T22:23:35.575Z,94436.50
2022-09-01T22:26:02.404Z,94436.94
2022-09-01T22:28:29.405Z,94445.38
2022-09-01T22:30:56.147Z,94442.13
2022-09-01T22:33:23.576Z,94434.72
2022-09-01T22:35:54.686Z,94439.44
2022-09-01T22:38:22.508Z,94437.88
2022-09-01T22:40:59.619Z,94435.16
2022-09-01T22:43:28.564Z,94431.69
2022-09-01T22:45:56.596Z,94433.94
2022-09-01T22:48:26.571Z,94434.28
2022-09-01T22:50:53.441Z,94428.78
2022-09-01T22:53:22.010Z,94434.53
2022-09-01T22:55:51.003Z,94434.09
2022-09-01T22:58:18.679Z,94427.41
2022-09-01T23:00:48.888Z,94432.00
2022-09-01T23:03:16.229Z,94421.47
2022-09-01T23:05:44.426Z,94431.38
2022-09-01T23:08:11.566Z,94432.16
2022-09-01T23:10:38.427Z,94432.41
2022-09-01T23:13:05.364Z,94425.00
2022-09-01T23:15:32.661Z,94427.69
2022-09-01T23:17:59.602Z,94427.28
2022-09-01T23:20:27.125Z,94425.44
2022-09-01T23:22:53.975Z,94429.38
2022-09-01T23:25:20.744Z,94420.50
2022-09-01T23:27:47.422Z,94422.16
2022-09-01T23:30:15.330Z,94417.13
2022-09-01T23:32:42.117Z,94420.94
2022-09-01T23:35:09.378Z,94416.56
2022-09-01T23:37:36.054Z,94412.69
2022-09-01T23:40:04.602Z,94407.75
2022-09-01T23:42:31.384Z,94417.75
2022-09-01T23:44:58.041Z,94416.06
2022-09-01T23:47:25.135Z,94414.06
2022-09-01T23:49:51.798Z,94414.41
2022-09-01T23:52:18.538Z,94412.94
2022-09-01T23:54:45.200Z,94408.09
2022-09-01T23:57:12.776Z,94415.72
2022-09-01T23:59:39.492Z,94407.53
